GW0655 Weather Reports


time (UTC)temp
C
wind
direction
speed
KPH
gust
KPH
rain 1hr
cm
rain 24hr
cm
rain mn
cm
humidity
%
barometer
mb
20220525134947 16 359 1.6 1.6 0.00 1.32 1.32 99 1012.5
20220525134446 16 343 1.6 3.2 0.00 1.32 1.32 99 1011.8
20220525133947 16 358 0.0 1.6 0.00 1.32 1.32 99 1012.1
20220525133446 16 229 3.2 3.2 0.00 1.32 1.32 99 1011.8
20220525132944 16 320 1.6 1.6 0.00 1.32 1.32 99 1011.8
20220525132443 16 267 0.0 0.0 0.00 1.32 1.32 99 1011.8
20220525131943 16 311 0.0 1.6 0.00 1.32 1.32 99 1011.8
20220525131442 16 355 0.0 1.6 0.00 1.32 1.32 99 1011.8
20220525130941 16 313 0.0 0.0 0.00 1.32 1.32 99 1011.8
20220525130439 16 303 0.0 1.6 0.00 1.32 1.32 99 1011.5
20220525125938 16 249 0.0 0.0 0.00 1.32 1.32 99 1011.8
20220525125437 16 300 0.0 0.0 0.00 1.32 1.32 99 1011.5
20220525124935 16 311 1.6 1.6 0.00 1.32 1.32 99 1011.5
20220525124434 16 309 0.0 1.6 0.00 1.32 1.32 99 1011.5
20220525123934 16 251 0.0 0.0 0.00 1.32 1.32 99 1011.5
20220525123432 16 237 0.0 0.0 0.00 1.32 1.32 99 1011.0
20220525122932 16 283 0.0 0.0 0.00 1.32 1.32 99 1010.7
20220525122430 16 247 0.0 0.0 0.00 1.32 1.32 99 1011.0
20220525121929 16 262 0.0 0.0 0.00 1.32 1.32 99 1010.7
20220525121427 16 295 0.0 1.6 0.00 1.32 1.32 99 1010.3
20220525120925 16 321 1.6 3.2 0.00 1.32 1.32 99 1010.3
20220525120425 16 300 1.6 1.6 0.00 1.32 1.32 99 1010.3
20220525115924 16 246 0.0 0.0 0.00 1.32 1.32 99 1010.3
20220525115424 16 300 0.0 0.0 0.00 1.32 1.32 99 1010.0
20220525114922 16 305 1.6 1.6 0.00 1.32 1.32 99 1010.0
20220525114420 16 259 0.0 0.0 0.00 1.32 1.32 99 1010.0
20220525113918 16 266 0.0 0.0 0.00 1.32 1.32 99 1010.0
20220525113417 16 275 0.0 1.6 0.00 1.32 1.32 99 1010.0
20220525112916 16 274 1.6 3.2 0.00 1.32 1.32 99 1010.0
20220525112414 16 258 0.0 0.0 0.00 1.32 1.32 99 1010.0
20220525111913 16 267 0.0 0.0 0.00 1.32 1.32 99 1009.7
20220525111412 16 266 0.0 0.0 0.00 1.32 1.32 99 1009.7
20220525110911 16 264 0.0 0.0 0.00 1.32 1.32 99 1009.7
20220525110410 16 269 0.0 0.0 0.00 1.32 1.32 99 1009.7
20220525105908 16 268 0.0 0.0 0.00 1.32 1.32 99 1009.7
20220525105407 16 267 0.0 0.0 0.00 1.32 1.32 99 1009.7
20220525104906 16 267 0.0 0.0 0.00 1.32 1.32 99 1009.7
20220525104405 16 266 0.0 0.0 0.00 1.32 1.32 99 1009.7
20220525103904 16 262 0.0 0.0 0.00 1.32 1.32 99 1010.0
20220525103403 16 253 0.0 0.0 0.00 1.32 1.32 99 1010.0
20220525102901 16 254 0.0 0.0 0.00 1.32 1.32 99 1009.7
20220525102359 16 264 1.6 3.2 0.00 1.32 1.32 99 1010.3
20220525101858 16 246 0.0 0.0 0.00 1.32 1.32 99 1010.0
20220525101357 16 258 0.0 0.0 0.00 1.32 1.32 99 1010.3
20220525100855 16 254 0.0 0.0 0.00 1.32 1.32 99 1010.3
20220525100355 16 264 0.0 0.0 0.00 1.32 1.32 99 1010.0
20220525095853 16 252 1.6 1.6 0.03 1.32 1.32 99 1010.0
20220525095352 16 254 0.0 0.0 0.03 1.32 1.32 99 1010.0
20220525094851 16 240 0.0 0.0 0.03 1.32 1.32 99 1009.7
20220525094351 16 307 1.6 1.6 0.03 1.32 1.32 99 1009.7
20220525093849 16 262 1.6 1.6 0.03 1.32 1.32 99 1009.3
20220525093349 16 277 3.2 4.8 0.03 1.32 1.32 99 1009.3
20220525092845 16 173 1.6 1.6 0.03 1.32 1.32 99 1008.6
20220525092344 16 227 1.6 3.2 0.03 1.32 1.32 99 1008.3
20220525091842 16 313 4.8 4.8 0.00 1.30 1.30 99 1007.6
20220525091340 16 207 0.0 0.0 0.00 1.30 1.30 99 1006.6
20220525090839 16 139 3.2 4.8 0.00 1.30 1.30 99 1006.3
20220525090337 16 193 3.2 3.2 0.00 1.30 1.30 99 1006.3
20220525085836 16 166 6.4 9.7 0.00 1.30 1.30 99 1005.9
20220525085334 16 173 3.2 4.8 0.00 1.30 1.30 99 1005.6
20220525084833 16 124 4.8 8.0 0.00 1.30 1.30 99 1005.9
20220525084331 16 144 3.2 3.2 0.00 1.30 1.30 99 1005.6
20220525083830 16 102 6.4 8.0 0.00 1.30 1.30 99 1005.9
20220525083329 16 63 8.0 12.9 0.00 1.30 1.30 99 1005.6
20220525082827 16 143 4.8 8.0 0.00 1.30 1.30 99 1006.3
20220525082325 16 113 6.4 9.7 0.00 1.30 1.30 99 1006.6
20220525081824 16 152 4.8 8.0 0.00 1.30 1.30 99 1008.0
20220525081323 16 174 3.2 4.8 0.00 1.30 1.30 99 1009.3
20220525080821 16 95 1.6 3.2 0.00 1.30 1.30 99 1009.0
20220525080321 16 137 1.6 1.6 0.00 1.30 1.30 99 1009.0
20220525075819 16 107 4.8 4.8 0.30 1.30 1.30 99 1009.0
20220525075318 16 60 0.0 1.6 0.30 1.30 1.30 99 1008.6
20220525074816 16 68 1.6 3.2 0.30 1.30 1.30 99 1008.6
20220525074315 16 141 8.0 11.3 0.30 1.30 1.30 99 1009.0
20220525073814 16 46 4.8 8.0 0.30 1.30 1.30 99 1009.3
20220525073313 16 60 4.8 4.8 0.30 1.30 1.30 99 1009.3
20220525072811 13 67 3.2 3.2 0.28 1.27 1.27 99 1009.7
20220525072310 16 61 4.8 4.8 0.23 1.22 1.22 99 1010.7
20220525071809 16 66 3.2 3.2 0.18 1.17 1.17 99 1011.5
20220525071308 16 117 0.0 0.0 0.10 1.09 1.09 99 1011.8
20220525070806 16 151 0.0 0.0 0.08 1.07 1.07 99 1012.1
20220525070305 16 151 0.0 0.0 0.03 1.02 1.02 99 1012.5
20220525065804 13 245 0.0 0.0 0.36 0.99 0.99 99 1012.8
20220525065300 16 236 0.0 0.0 0.30 0.94 0.94 99 1013.5
20220525064801 16 213 1.6 1.6 0.23 0.86 0.86 99 1013.8
20220525064257 16 235 3.2 3.2 0.20 0.84 0.84 99 1013.5
20220525063756 16 271 1.6 1.6 0.18 0.81 0.81 99 1013.5
20220525063254 16 284 0.0 0.0 0.15 0.79 0.79 99 1013.1
20220525062753 16 299 0.0 1.6 0.10 0.74 0.74 99 1012.8
20220525062252 16 324 0.0 0.0 0.08 0.71 0.71 99 1012.5
20220525061751 16 319 0.0 0.0 0.08 0.71 0.71 99 1012.5
20220525061249 16 328 0.0 0.0 0.05 0.69 0.69 99 1012.5
20220525060749 16 347 1.6 1.6 0.03 0.66 0.66 99 1012.5
20220525060247 16 9 0.0 0.0 0.00 0.64 0.64 99 1012.1
20220525055747 16 353 6.4 8.0 0.61 0.61 0.61 99 1011.8
20220525055247 16 354 12.9 14.5 0.61 0.61 0.61 99 1010.7
20220525054745 16 33 9.7 12.9 0.56 0.56 0.56 99 1010.7
20220525054244 16 1 8.0 9.7 0.51 0.51 0.51 99 1010.7
20220525053743 16 350 6.4 8.0 0.48 0.48 0.48 99 1011.0
20220525053242 16 7 6.4 8.0 0.46 0.46 0.46 99 1011.0
20220525052740 16 10 8.0 11.3 0.41 0.41 0.41 99 1011.0
20220525052238 16 5 6.4 8.0 0.38 0.38 0.38 99 1011.0
20220525051735 16 0 6.4 9.7 0.36 0.36 0.36 99 1010.7
20220525051235 16 327 3.2 3.2 0.25 0.25 0.25 99 1011.0
20220525050733 16 320 3.2 3.2 0.13 0.13 0.13 99 1010.7
20220525050232 16 313 4.8 4.8 0.05 0.05 0.05 98 1010.7
20220525045732 16 21 1.6 1.6 2.92 2.92 2.92 98 1009.7
20220525045231 16 29 3.2 3.2 2.82 2.82 2.82 98 1008.3
20220525044730 16 14 8.0 11.3 2.59 2.59 2.59 97 1008.0
20220525044229 16 36 6.4 9.7 2.11 2.11 2.11 96 1009.0
20220525043729 17 26 6.4 12.9 1.14 1.14 1.14 95 1009.3
20220525043228 18 318 8.0 11.3 0.28 0.28 0.28 92 1010.7
20220525042726 21 5 6.4 9.7 0.03 0.03 0.03 83 1010.3
20220525042224 23 16 6.4 9.7 0.00 0.00 0.00 70 1010.0
20220525041723 23 43 11.3 16.1 0.00 0.00 0.00 69 1007.0
20220525041223 25 37 3.2 4.8 0.00 0.00 0.00 69 1007.0
20220525040722 25 67 4.8 4.8 0.00 0.00 0.00 73 1006.6
20220525040220 25 22 3.2 3.2 0.00 0.00 0.00 73 1006.6
20220525035718 26 44 1.6 3.2 0.00 0.00 0.00 72 1006.6
20220525035217 26 7 0.0 0.0 0.00 0.00 0.00 72 1006.6
20220525034717 26 37 1.6 1.6 0.00 0.00 0.00 71 1006.6
20220525034215 26 42 3.2 3.2 0.00 0.00 0.00 71 1007.0
20220525033715 26 42 0.0 0.0 0.00 0.00 0.00 71 1006.3
20220525033213 26 52 4.8 4.8 0.00 0.00 0.00 70 1006.3
20220525032711 26 84 1.6 3.2 0.00 0.00 0.00 70 1006.3
20220525032209 26 44 3.2 3.2 0.00 0.00 0.00 70 1005.9
20220525031708 26 68 4.8 8.0 0.00 0.00 0.00 71 1006.3
20220525031207 26 52 1.6 3.2 0.00 0.00 0.00 70 1005.9
20220525030705 26 51 1.6 3.2 0.00 0.00 0.00 69 1005.9
20220525030205 26 51 1.6 1.6 0.00 0.00 0.00 69 1005.6
20220525025704 26 116 3.2 3.2 0.00 0.00 0.00 69 1005.3
20220525025203 26 126 4.8 8.0 0.00 0.00 0.00 68 1004.9
20220525024701 26 69 3.2 4.8 0.00 0.00 0.00 68 1005.3
20220525024200 26 88 6.4 8.0 0.00 0.00 0.00 68 1005.3
20220525023658 26 101 1.6 3.2 0.00 0.00 0.00 68 1005.6
20220525023159 26 107 4.8 4.8 0.00 0.00 0.00 68 1005.6
20220525022655 26 127 3.2 3.2 0.00 0.00 0.00 67 1005.3
20220525022154 26 149 1.6 1.6 0.00 0.00 0.00 67 1004.9
20220525021652 26 137 1.6 3.2 0.00 0.00 0.00 66 1004.9
20220525021150 27 126 3.2 4.8 0.00 0.00 0.00 65 1004.9
20220525020649 27 170 0.0 1.6 0.00 0.00 0.00 64 1005.3
20220525020147 27 197 0.0 1.6 0.00 0.00 0.00 64 1005.3
20220525015646 27 99 3.2 3.2 0.00 0.00 0.00 63 1005.3
20220525015144 27 61 3.2 3.2 0.00 0.00 0.00 62 1005.3
20220525014642 27 163 3.2 3.2 0.00 0.00 0.00 62 1005.3
20220525014142 27 156 1.6 3.2 0.00 0.00 0.00 61 1005.6
20220525013640 27 171 1.6 1.6 0.00 0.00 0.00 61 1005.3
20220525013138 27 110 3.2 4.8 0.00 0.00 0.00 61 1005.3
20220525012638 28 141 3.2 3.2 0.00 0.00 0.00 60 1005.3
20220525012137 28 195 1.6 1.6 0.00 0.00 0.00 60 1004.9
20220525011636 28 178 1.6 1.6 0.00 0.00 0.00 60 1004.9
20220525011135 28 165 0.0 0.0 0.00 0.00 0.00 60 1004.9
20220525010634 28 178 0.0 1.6 0.00 0.00 0.00 59 1004.5
20220525010132 28 192 3.2 3.2 0.00 0.00 0.00 58 1004.5
20220525005632 28 173 3.2 4.8 0.00 0.00 0.00 58 1004.9
20220525005130 28 166 4.8 8.0 0.00 0.00 0.00 58 1004.5
20220525004626 28 179 4.8 4.8 0.00 0.00 0.00 58 1004.5
20220525004125 28 160 4.8 11.3 0.00 0.00 0.00 58 1004.5
20220525003625 28 190 4.8 4.8 0.00 0.00 0.00 57 1004.1
20220525003124 28 165 8.0 11.3 0.00 0.00 0.00 56 1004.1
20220525002624 28 188 8.0 12.9 0.00 0.00 0.00 56 1004.1
20220525002122 28 195 4.8 4.8 0.00 0.00 0.00 56 1003.8
20220525001620 28 145 8.0 11.3 0.00 0.00 0.00 56 1003.8
20220525001120 28 183 4.8 9.7 0.00 0.00 0.00 56 1004.1
20220525000618 28 144 14.5 17.7 0.00 0.00 0.00 56 1003.8
20220525000117 28 187 6.4 11.3 0.00 0.00 0.00 58 1003.8
20220524235615 29 207 4.8 8.0 0.00 0.00 0.00 57 1003.5
20220524235113 29 189 4.8 4.8 0.00 0.00 0.00 59 1003.5
20220524234613 29 213 4.8 4.8 0.00 0.00 0.00 58 1004.1
20220524234109 29 182 12.9 16.1 0.00 0.00 0.00 56 1003.8
20220524233608 29 151 8.0 11.3 0.00 0.00 0.00 57 1003.8
20220524233108 29 140 4.8 9.7 0.00 0.00 0.00 56 1004.1
20220524232608 29 155 4.8 8.0 0.00 0.00 0.00 57 1003.8
20220524232108 29 131 4.8 4.8 0.00 0.00 0.00 56 1004.1
20220524231607 29 154 4.8 8.0 0.00 0.00 0.00 56 1004.5
20220524231106 30 164 6.4 9.7 0.00 0.00 0.00 56 1004.1
20220524230605 29 198 4.8 9.7 0.00 0.00 0.00 57 1004.1
20220524230103 29 171 8.0 12.9 0.00 0.00 0.00 56 1004.1
20220524225601 29 206 8.0 9.7 0.00 0.00 0.00 57 1004.1
20220524225101 30 135 6.4 9.7 0.00 0.00 0.00 57 1004.1
20220524224600 30 214 4.8 4.8 0.00 0.00 0.00 57 1004.5
20220524224058 30 130 3.2 8.0 0.00 0.00 0.00 57 1004.5
20220524223557 30 149 3.2 4.8 0.00 0.00 0.00 57 1004.5
20220524223057 30 182 9.7 12.9 0.00 0.00 0.00 56 1004.9
20220524222555 29 221 11.3 14.5 0.00 0.00 0.00 57 1004.9
20220524222055 30 208 11.3 12.9 0.00 0.00 0.00 57 1004.9
20220524221553 30 176 6.4 11.3 0.00 0.00 0.00 54 1005.3
20220524221052 30 239 9.7 14.5 0.00 0.00 0.00 56 1005.3
20220524220552 30 185 6.4 8.0 0.00 0.00 0.00 54 1005.3
20220524220051 30 215 6.4 8.0 0.00 0.00 0.00 56 1005.3
20220524215547 30 169 4.8 8.0 0.00 0.00 0.00 57 1005.3
20220524215048 30 100 8.0 16.1 0.00 0.00 0.00 54 1005.9
20220524214546 30 131 4.8 9.7 0.00 0.00 0.00 56 1005.6
20220524214046 30 188 11.3 20.9 0.00 0.00 0.00 57 1005.6
20220524213544 30 184 6.4 8.0 0.00 0.00 0.00 56 1005.9
20220524213044 30 116 11.3 17.7 0.00 0.00 0.00 55 1005.9
20220524212543 30 180 6.4 12.9 0.00 0.00 0.00 56 1005.6
20220524212042 29 193 6.4 8.0 0.00 0.00 0.00 57 1005.9
20220524211540 30 192 8.0 14.5 0.00 0.00 0.00 56 1005.9
20220524211039 30 211 3.2 8.0 0.00 0.00 0.00 57 1005.9
20220524210538 30 169 1.6 3.2 0.00 0.00 0.00 56 1006.3
20220524210036 30 143 9.7 12.9 0.00 0.00 0.00 56 1006.3
20220524205534 30 138 8.0 8.0 0.00 0.00 0.00 56 1006.3
20220524205034 29 182 1.6 3.2 0.00 0.00 0.00 58 1006.3
20220524204532 29 188 9.7 16.1 0.00 0.00 0.00 57 1006.3
20220524204031 29 157 11.3 17.7 0.00 0.00 0.00 56 1006.6
20220524203530 29 198 8.0 12.9 0.00 0.00 0.00 57 1006.6
20220524203030 29 169 9.7 12.9 0.00 0.00 0.00 57 1006.6
20220524202530 29 181 8.0 12.9 0.00 0.00 0.00 55 1006.3
20220524202030 29 181 6.4 9.7 0.00 0.00 0.00 55 1006.6
20220524201529 28 134 6.4 8.0 0.00 0.00 0.00 56 1006.6
20220524201029 29 191 8.0 11.3 0.00 0.00 0.00 56 1007.0
20220524200528 30 200 9.7 12.9 0.00 0.00 0.00 55 1006.6
20220524200027 30 180 9.7 12.9 0.00 0.00 0.00 53 1007.0
20220524195526 30 195 6.4 11.3 0.00 0.00 0.00 53 1007.0
20220524195025 30 208 9.7 11.3 0.00 0.00 0.00 52 1007.0
20220524194524 30 96 4.8 8.0 0.00 0.00 0.00 53 1007.0
20220524194022 30 154 4.8 4.8 0.00 0.00 0.00 53 1007.0
20220524193521 30 182 9.7 12.9 0.00 0.00 0.00 51 1007.3
20220524193022 30 180 9.7 11.3 0.00 0.00 0.00 51 1007.3
20220524192520 30 177 4.8 8.0 0.00 0.00 0.00 51 1007.3
20220524192019 30 115 4.8 4.8 0.00 0.00 0.00 51 1007.0
20220524191518 30 130 12.9 16.1 0.00 0.00 0.00 51 1007.3
20220524191017 30 172 8.0 11.3 0.00 0.00 0.00 51 1007.3
20220524190516 30 167 8.0 11.3 0.00 0.00 0.00 52 1007.3
20220524190015 30 191 14.5 16.1 0.00 0.00 0.00 54 1007.3
20220524185513 30 163 8.0 9.7 0.00 0.00 0.00 56 1007.3
20220524185013 29 152 6.4 8.0 0.00 0.00 0.00 56 1007.3
20220524184511 30 98 8.0 12.9 0.00 0.00 0.00 56 1007.3
20220524184009 29 179 4.8 8.0 0.00 0.00 0.00 59 1007.3
20220524183508 29 179 9.7 12.9 0.00 0.00 0.00 58 1007.3
20220524183006 29 167 8.0 11.3 0.00 0.00 0.00 59 1007.3
20220524182505 29 186 4.8 4.8 0.00 0.00 0.00 60 1007.3
20220524182005 29 86 4.8 8.0 0.00 0.00 0.00 60 1007.3
20220524181505 29 74 11.3 12.9 0.00 0.00 0.00 60 1007.3
20220524181004 28 201 6.4 9.7 0.00 0.00 0.00 63 1007.3
20220524180503 28 112 11.3 14.5 0.00 0.00 0.00 61 1007.3
20220524180001 28 186 8.0 11.3 0.00 0.00 0.00 62 1007.3
20220524175501 28 200 6.4 9.7 0.00 0.00 0.00 62 1007.6
20220524175000 28 124 1.6 1.6 0.00 0.00 0.00 64 1007.6
20220524174459 28 113 8.0 12.9 0.00 0.00 0.00 64 1007.6
20220524173958 28 183 4.8 8.0 0.00 0.00 0.00 66 1007.6
20220524173456 28 169 1.6 3.2 0.00 0.00 0.00 67 1007.3
20220524172955 28 193 3.2 4.8 0.00 0.00 0.00 67 1007.6
20220524172454 28 182 8.0 9.7 0.00 0.00 0.00 67 1007.6
20220524171952 28 187 4.8 8.0 0.00 0.00 0.00 66 1008.0
20220524171451 27 264 3.2 3.2 0.00 0.00 0.00 67 1008.0
20220524170948 27 184 6.4 8.0 0.00 0.00 0.00 69 1008.0
20220524170446 27 207 1.6 3.2 0.00 0.00 0.00 69 1008.0
20220524165945 27 145 6.4 9.7 0.00 0.00 0.00 68 1008.0
20220524165443 27 147 4.8 8.0 0.00 0.00 0.00 68 1008.0
20220524164941 27 198 6.4 8.0 0.00 0.00 0.00 68 1008.3
20220524164440 27 143 8.0 11.3 0.00 0.00 0.00 67 1008.3
20220524163939 27 182 4.8 8.0 0.00 0.00 0.00 67 1008.3
20220524163438 27 167 6.4 9.7 0.00 0.00 0.00 68 1008.3
20220524162937 27 208 9.7 11.3 0.00 0.00 0.00 69 1008.3
20220524162435 27 177 8.0 12.9 0.00 0.00 0.00 68 1008.6
20220524161933 27 194 8.0 11.3 0.00 0.00 0.00 67 1008.6
20220524161432 27 198 8.0 11.3 0.00 0.00 0.00 68 1008.6
20220524160928 26 182 8.0 11.3 0.00 0.00 0.00 70 1008.6
20220524160428 26 197 8.0 9.7 0.00 0.00 0.00 71 1008.6
20220524155928 26 164 8.0 9.7 0.00 0.00 0.00 72 1008.3
20220524155427 26 180 8.0 9.7 0.00 0.00 0.00 72 1008.3
20220524154925 26 207 4.8 4.8 0.00 0.00 0.00 74 1008.6
20220524154424 26 209 9.7 14.5 0.00 0.00 0.00 74 1008.6
20220524153924 26 149 4.8 8.0 0.00 0.00 0.00 77 1009.0
20220524153423 26 160 4.8 8.0 0.00 0.00 0.00 80 1009.0
20220524152923 26 134 1.6 1.6 0.00 0.00 0.00 81 1008.6
20220524152421 26 117 1.6 3.2 0.00 0.00 0.00 83 1009.0
20220524151920 25 161 4.8 8.0 0.00 0.00 0.00 84 1009.0
20220524151418 25 192 4.8 4.8 0.00 0.00 0.00 83 1009.3
20220524150916 25 166 6.4 9.7 0.00 0.00 0.00 84 1009.0
20220524150414 25 116 8.0 12.9 0.00 0.00 0.00 85 1009.3
20220524145912 25 141 4.8 8.0 0.00 0.00 0.00 85 1009.3
20220524145409 25 141 1.6 1.6 0.00 0.00 0.00 87 1009.0
20220524144908 25 141 6.4 9.7 0.00 0.00 0.00 87 1009.3
20220524144406 25 199 6.4 9.7 0.00 0.00 0.00 87 1009.0
20220524143904 24 104 4.8 4.8 0.00 0.00 0.00 88 1009.3
20220524143403 24 188 3.2 3.2 0.00 0.00 0.00 90 1009.3
20220524142903 24 119 6.4 11.3 0.00 0.00 0.00 90 1009.3
20220524142401 24 188 3.2 3.2 0.00 0.00 0.00 90 1009.3
20220524141900 23 122 4.8 4.8 0.00 0.00 0.00 91 1009.3
20220524141358 23 126 4.8 8.0 0.00 0.00 0.00 91 1009.0
20220524140857 23 107 4.8 8.0 0.00 0.00 0.00 91 1009.3
20220524140355 23 119 4.8 4.8 0.00 0.00 0.00 91 1009.3
20220524135853 23 104 1.6 3.2 0.00 0.00 0.00 92 1009.3
20220524135351 23 129 3.2 4.8 0.00 0.00 0.00 93 1009.3